createdAt,value
2023-05-08T00:00:41.540Z,17.71
2023-05-08T00:01:41.539Z,17.71
2023-05-08T00:02:41.638Z,17.68
2023-05-08T00:03:41.686Z,17.68
2023-05-08T00:04:41.640Z,17.66
2023-05-08T00:05:41.594Z,17.68
2023-05-08T00:06:41.609Z,17.72
2023-05-08T00:07:41.635Z,17.74
2023-05-08T00:08:41.628Z,17.79
2023-05-08T00:09:41.648Z,17.76
2023-05-08T00:10:41.665Z,17.76
2023-05-08T00:11:41.676Z,17.76
2023-05-08T00:12:41.710Z,17.66
2023-05-08T00:13:41.665Z,17.69
2023-05-08T00:14:41.701Z,17.75
2023-05-08T00:15:41.703Z,17.74
2023-05-08T00:16:41.767Z,17.74
2023-05-08T00:17:41.765Z,17.73
2023-05-08T00:18:41.723Z,17.71
2023-05-08T00:19:41.718Z,17.74
2023-05-08T00:20:41.749Z,17.77
2023-05-08T00:21:41.735Z,17.79
2023-05-08T00:22:41.829Z,17.81
2023-05-08T00:23:41.751Z,17.83
2023-05-08T00:24:41.754Z,17.79
2023-05-08T00:25:41.740Z,17.81
2023-05-08T00:26:41.757Z,17.85
2023-05-08T00:27:41.732Z,17.86
2023-05-08T00:28:41.753Z,17.86
2023-05-08T00:29:41.731Z,17.86
2023-05-08T00:30:41.734Z,17.85
2023-05-08T00:31:41.777Z,17.78
2023-05-08T00:32:41.753Z,17.80
2023-05-08T00:33:41.838Z,17.80
2023-05-08T00:34:41.782Z,17.84
2023-05-08T00:35:41.768Z,17.87
2023-05-08T00:36:41.777Z,17.87
2023-05-08T00:37:41.789Z,17.83
2023-05-08T00:38:41.814Z,17.82
2023-05-08T00:39:41.802Z,17.79
2023-05-08T00:40:41.797Z,17.82
2023-05-08T00:41:41.802Z,17.84
2023-05-08T00:42:41.793Z,17.80
2023-05-08T00:43:41.833Z,17.77
2023-05-08T00:44:41.829Z,17.80
2023-05-08T00:45:41.845Z,17.81
2023-05-08T00:46:41.996Z,17.83
2023-05-08T00:47:41.865Z,17.79
2023-05-08T00:48:41.851Z,17.82
2023-05-08T00:49:41.844Z,17.78
2023-05-08T00:50:41.868Z,17.82
2023-05-08T00:51:41.864Z,17.77
2023-05-08T00:52:41.854Z,17.72
2023-05-08T00:53:41.890Z,17.65
2023-05-08T00:54:41.892Z,17.66
2023-05-08T00:55:41.888Z,17.73
2023-05-08T00:56:41.879Z,17.76
2023-05-08T00:57:41.890Z,17.80
2023-05-08T00:58:41.878Z,17.80
2023-05-08T00:59:41.900Z,17.83
2023-05-08T01:00:41.896Z,17.80
2023-05-08T01:01:41.939Z,17.82
2023-05-08T01:02:41.978Z,17.75
2023-05-08T01:03:42.002Z,17.75
2023-05-08T01:04:41.954Z,17.76
2023-05-08T01:05:41.975Z,17.74
2023-05-08T01:06:41.972Z,17.76
2023-05-08T01:07:42.004Z,17.77
2023-05-08T01:08:42.002Z,17.78
2023-05-08T01:09:42.015Z,17.78
2023-05-08T01:10:42.028Z,17.74
2023-05-08T01:11:42.078Z,17.68
2023-05-08T01:12:42.110Z,17.64
2023-05-08T01:13:42.127Z,17.64
2023-05-08T01:14:42.174Z,17.61
2023-05-08T01:15:42.209Z,17.63
2023-05-08T01:16:42.220Z,17.65
2023-05-08T01:17:42.251Z,17.63
2023-05-08T01:18:42.261Z,17.59
2023-05-08T01:19:42.283Z,17.59
2023-05-08T01:20:42.315Z,17.57
2023-05-08T01:21:42.346Z,17.56
2023-05-08T01:22:42.352Z,17.59
2023-05-08T01:23:42.395Z,17.60
2023-05-08T01:24:42.426Z,17.62
2023-05-08T01:25:42.429Z,17.66
2023-05-08T01:26:42.429Z,17.68
2023-05-08T01:27:42.453Z,17.69
2023-05-08T01:28:42.475Z,17.69
2023-05-08T01:29:42.511Z,17.67
2023-05-08T01:30:42.545Z,17.69
2023-05-08T01:31:42.543Z,17.69
2023-05-08T01:32:42.574Z,17.68
2023-05-08T01:33:42.637Z,17.70
2023-05-08T01:34:42.581Z,17.69
2023-05-08T01:35:42.582Z,17.71
2023-05-08T01:36:42.596Z,17.69
2023-05-08T01:37:42.603Z,17.66
2023-05-08T01:38:42.617Z,17.67
2023-05-08T01:39:42.628Z,17.64
2023-05-08T01:40:42.688Z,17.64
2023-05-08T01:41:42.681Z,17.66
2023-05-08T01:42:42.689Z,17.64
2023-05-08T01:43:42.707Z,17.62
2023-05-08T01:44:42.729Z,17.64
2023-05-08T01:45:42.715Z,17.66
2023-05-08T01:46:42.779Z,17.65
2023-05-08T01:47:42.742Z,17.61
2023-05-08T01:48:42.719Z,17.58
2023-05-08T01:49:42.721Z,17.57
2023-05-08T01:50:42.731Z,17.59
2023-05-08T01:51:42.753Z,17.57
2023-05-08T01:52:42.761Z,17.58
2023-05-08T01:53:42.751Z,17.58
2023-05-08T01:54:42.760Z,17.60
2023-05-08T01:55:42.809Z,17.56
2023-05-08T01:56:42.798Z,17.57
2023-05-08T01:57:42.821Z,17.60
2023-05-08T01:58:42.818Z,17.59
2023-05-08T01:59:42.864Z,17.56
2023-05-08T02:00:42.916Z,17.55
2023-05-08T02:01:42.879Z,17.59
2023-05-08T02:02:42.980Z,17.60
2023-05-08T02:03:42.947Z,17.61
2023-05-08T02:04:42.919Z,17.59
2023-05-08T02:05:42.928Z,17.58
2023-05-08T02:06:42.930Z,17.59
2023-05-08T02:07:42.940Z,17.62
2023-05-08T02:08:42.950Z,17.57
2023-05-08T02:09:42.963Z,17.55
2023-05-08T02:10:42.983Z,17.55
2023-05-08T02:11:42.981Z,17.54
2023-05-08T02:12:43.015Z,17.52
2023-05-08T02:13:43.001Z,17.52
2023-05-08T02:14:43.007Z,17.55
2023-05-08T02:15:43.020Z,17.50
2023-05-08T02:16:43.073Z,17.51
2023-05-08T02:17:43.159Z,17.49
2023-05-08T02:18:43.081Z,17.52
2023-05-08T02:19:43.086Z,17.51
2023-05-08T02:20:43.106Z,17.50
2023-05-08T02:21:43.130Z,17.47
2023-05-08T02:22:43.189Z,17.45
2023-05-08T02:23:43.168Z,17.46
2023-05-08T02:24:43.196Z,17.47
2023-05-08T02:25:43.223Z,17.44
2023-05-08T02:26:43.356Z,17.47
2023-05-08T02:27:43.263Z,17.49
2023-05-08T02:28:43.283Z,17.55
2023-05-08T02:29:43.314Z,17.51
2023-05-08T02:30:43.354Z,17.52
2023-05-08T02:31:43.423Z,17.56
2023-05-08T02:32:43.448Z,17.55
2023-05-08T02:33:43.418Z,17.54
2023-05-08T02:34:54.985Z,17.49
2023-05-08T02:35:44.464Z,17.43
2023-05-08T02:36:43.437Z,17.39
2023-05-08T02:37:43.433Z,17.44
2023-05-08T02:38:43.413Z,17.47
2023-05-08T02:39:43.431Z,17.45
2023-05-08T02:40:43.426Z,17.43
2023-05-08T02:41:43.392Z,17.45
2023-05-08T02:42:43.384Z,17.46
2023-05-08T02:43:43.396Z,17.48
2023-05-08T02:44:43.378Z,17.48
2023-05-08T02:45:43.402Z,17.46
2023-05-08T02:46:43.380Z,17.46
2023-05-08T02:47:43.432Z,17.46
2023-05-08T02:48:43.335Z,17.46
2023-05-08T02:49:43.346Z,17.44
2023-05-08T02:50:43.338Z,17.50
2023-05-08T02:51:43.317Z,17.55
2023-05-08T02:52:43.319Z,17.56
2023-05-08T02:53:43.317Z,17.59
2023-05-08T02:54:43.321Z,17.60
2023-05-08T02:55:43.293Z,17.59
2023-05-08T02:56:43.339Z,17.62
2023-05-08T02:57:43.333Z,17.66
2023-05-08T02:58:43.326Z,17.67
2023-05-08T02:59:43.332Z,17.71
2023-05-08T03:00:43.354Z,17.70
2023-05-08T03:01:43.366Z,17.70
2023-05-08T03:02:43.436Z,17.70
2023-05-08T03:03:43.601Z,17.71
2023-05-08T03:04:43.414Z,17.72
2023-05-08T03:05:43.403Z,17.70
2023-05-08T03:06:43.413Z,17.70
2023-05-08T03:07:43.428Z,17.70
2023-05-08T03:08:43.454Z,17.68
2023-05-08T03:09:43.470Z,17.67
2023-05-08T03:10:43.472Z,17.70
2023-05-08T03:11:43.504Z,17.69
2023-05-08T03:12:43.544Z,17.70
2023-05-08T03:13:43.548Z,17.71
2023-05-08T03:14:43.560Z,17.70
2023-05-08T03:15:43.642Z,17.67
2023-05-08T03:16:43.605Z,17.63
2023-05-08T03:17:43.696Z,17.60
2023-05-08T03:18:43.635Z,17.63
2023-05-08T03:19:43.657Z,17.65
2023-05-08T03:20:43.688Z,17.66
2023-05-08T03:21:43.705Z,17.70
2023-05-08T03:22:43.738Z,17.60
2023-05-08T03:23:43.779Z,17.58
2023-05-08T03:24:43.808Z,17.58
2023-05-08T03:25:43.815Z,17.60
2023-05-08T03:26:43.822Z,17.46
2023-05-08T03:27:43.841Z,17.47
2023-05-08T03:28:43.820Z,17.52
2023-05-08T03:29:43.830Z,17.59
2023-05-08T03:30:43.840Z,17.61
2023-05-08T03:31:43.970Z,17.61
2023-05-08T03:32:43.839Z,17.64
2023-05-08T03:33:43.831Z,17.66
2023-05-08T03:34:43.853Z,17.61
2023-05-08T03:35:43.856Z,17.58
2023-05-08T03:36:43.918Z,17.62
2023-05-08T03:37:43.901Z,17.54
2023-05-08T03:38:43.883Z,17.59
2023-05-08T03:39:43.904Z,17.64
2023-05-08T03:40:43.922Z,17.65
2023-05-08T03:41:43.889Z,17.64
2023-05-08T03:42:43.895Z,17.63
2023-05-08T03:43:43.897Z,17.63
2023-05-08T03:44:43.918Z,17.48
2023-05-08T03:45:43.908Z,17.48
2023-05-08T03:46:43.975Z,17.45
2023-05-08T03:47:44.521Z,17.36
2023-05-08T03:48:43.987Z,17.38
2023-05-08T03:49:44.034Z,17.40
2023-05-08T03:50:44.039Z,17.37
2023-05-08T03:51:44.071Z,17.28
2023-05-08T03:52:44.120Z,17.34
2023-05-08T03:53:44.166Z,17.34
2023-05-08T03:54:44.216Z,17.30
2023-05-08T03:55:44.253Z,17.32
2023-05-08T03:56:44.303Z,17.31
2023-05-08T03:57:44.323Z,17.31
2023-05-08T03:58:44.405Z,17.30
2023-05-08T03:59:44.388Z,17.30
2023-05-08T04:00:44.433Z,17.32
2023-05-08T04:01:44.534Z,17.33
2023-05-08T04:02:44.518Z,17.30
2023-05-08T04:03:44.561Z,17.24
2023-05-08T04:04:44.538Z,17.24
2023-05-08T04:05:44.532Z,17.14
2023-05-08T04:06:49.858Z,17.09
2023-05-08T04:07:45.564Z,17.17
2023-05-08T04:08:44.552Z,17.13
2023-05-08T04:09:44.525Z,17.12
2023-05-08T04:10:44.548Z,17.17
2023-05-08T04:11:44.622Z,17.10
2023-05-08T04:12:44.566Z,17.09
2023-05-08T04:13:44.509Z,17.11
2023-05-08T04:14:44.495Z,17.06
2023-05-08T04:15:44.516Z,17.05
2023-05-08T04:16:44.597Z,17.10
2023-05-08T04:17:44.516Z,17.05
2023-05-08T04:18:44.520Z,17.04
2023-05-08T04:19:44.589Z,17.09
2023-05-08T04:20:46.247Z,17.13
2023-05-08T04:21:44.725Z,17.15
2023-05-08T04:22:44.778Z,17.10
2023-05-08T04:23:44.813Z,17.12
2023-05-08T04:24:44.858Z,17.14
2023-05-08T04:25:44.898Z,17.16
2023-05-08T04:26:44.936Z,17.15
2023-05-08T04:27:44.989Z,17.20
2023-05-08T04:28:45.053Z,17.26
2023-05-08T04:29:45.103Z,17.29
2023-05-08T04:30:45.140Z,17.16
2023-05-08T04:31:45.210Z,17.16
2023-05-08T04:32:46.760Z,17.08
2023-05-08T04:33:45.225Z,17.13
2023-05-08T04:34:45.276Z,17.13
2023-05-08T04:35:45.297Z,17.16
2023-05-08T04:36:45.361Z,17.17
2023-05-08T04:37:45.418Z,17.22
2023-05-08T04:38:45.456Z,17.24
2023-05-08T04:39:45.523Z,17.27
2023-05-08T04:40:45.609Z,17.26
2023-05-08T04:41:45.689Z,17.26
2023-05-08T04:42:45.683Z,17.27
2023-05-08T04:43:45.711Z,17.29
2023-05-08T04:44:45.743Z,17.31
2023-05-08T04:45:45.793Z,17.29
2023-05-08T04:46:45.819Z,17.33
2023-05-08T04:47:45.929Z,17.31
2023-05-08T04:48:45.931Z,17.32
2023-05-08T04:49:45.979Z,17.32
2023-05-08T04:50:46.015Z,17.24
2023-05-08T04:51:46.053Z,17.25
2023-05-08T04:52:46.085Z,17.29
2023-05-08T04:53:46.105Z,17.32
2023-05-08T04:54:46.193Z,17.30
2023-05-08T04:55:46.190Z,17.33
2023-05-08T04:56:46.230Z,17.34
2023-05-08T04:57:46.307Z,17.37
2023-05-08T04:58:46.293Z,17.40
2023-05-08T04:59:46.331Z,17.38
2023-05-08T05:00:46.342Z,17.31
2023-05-08T05:01:46.417Z,17.20
2023-05-08T05:02:46.453Z,17.21
2023-05-08T05:03:46.506Z,17.00
2023-05-08T05:04:46.532Z,17.10
2023-05-08T05:05:46.601Z,17.14
2023-05-08T05:06:46.630Z,17.18
2023-05-08T05:07:46.674Z,17.17
2023-05-08T05:08:46.723Z,17.05
2023-05-08T05:09:46.786Z,17.12
2023-05-08T05:10:46.832Z,17.16
2023-05-08T05:11:46.876Z,17.06
2023-05-08T05:12:47.062Z,17.16
2023-05-08T05:13:46.934Z,17.23
2023-05-08T05:14:46.951Z,17.28
2023-05-08T05:15:47.025Z,17.24
2023-05-08T05:16:46.996Z,17.31
2023-05-08T05:17:47.052Z,17.16
2023-05-08T05:18:47.070Z,17.18
2023-05-08T05:19:47.130Z,17.23
2023-05-08T05:20:47.157Z,17.25
2023-05-08T05:21:47.342Z,17.25
2023-05-08T05:22:47.230Z,17.26
2023-05-08T05:23:47.273Z,17.28
2023-05-08T05:24:47.302Z,17.34
2023-05-08T05:25:47.324Z,17.42
2023-05-08T05:26:47.331Z,17.48
2023-05-08T05:27:47.311Z,17.35
2023-05-08T05:28:47.360Z,17.26
2023-05-08T05:29:47.391Z,17.21
2023-05-08T05:30:47.401Z,17.14
2023-05-08T05:31:47.527Z,17.14
2023-05-08T05:32:47.508Z,17.17
2023-05-08T05:33:47.540Z,17.11
2023-05-08T05:34:47.561Z,17.05
2023-05-08T05:35:47.613Z,16.98
2023-05-08T05:36:47.643Z,16.94
2023-05-08T05:37:47.710Z,16.88
2023-05-08T05:38:47.770Z,16.68
2023-05-08T05:39:47.783Z,16.66
2023-05-08T05:40:47.814Z,16.62
2023-05-08T05:41:47.815Z,16.60
2023-05-08T05:42:47.814Z,16.60
2023-05-08T05:43:47.856Z,16.58
2023-05-08T05:44:47.836Z,16.61
2023-05-08T05:45:47.841Z,16.63
2023-05-08T05:46:47.945Z,16.66
2023-05-08T05:47:47.959Z,16.67
2023-05-08T05:48:47.946Z,16.64
2023-05-08T05:49:47.948Z,16.62
2023-05-08T05:50:47.934Z,16.64
2023-05-08T05:51:47.958Z,16.57
2023-05-08T05:52:48.080Z,16.60
2023-05-08T05:53:47.972Z,16.61
2023-05-08T05:54:47.996Z,16.63
2023-05-08T05:55:48.022Z,16.63
2023-05-08T05:56:48.006Z,16.58
2023-05-08T05:57:48.021Z,16.57
2023-05-08T05:58:48.033Z,16.63
2023-05-08T05:59:48.037Z,16.60
2023-05-08T06:00:48.039Z,16.62
2023-05-08T06:01:48.045Z,16.63
2023-05-08T06:02:48.175Z,16.66
2023-05-08T06:03:48.058Z,16.70
2023-05-08T06:04:48.043Z,16.77
2023-05-08T06:05:48.050Z,16.82
2023-05-08T06:06:48.125Z,16.82
2023-05-08T06:07:48.151Z,16.85
2023-05-08T06:08:48.213Z,16.90
2023-05-08T06:09:48.288Z,16.87
2023-05-08T06:10:48.354Z,16.83
2023-05-08T06:11:48.383Z,16.92
2023-05-08T06:12:48.484Z,16.89
2023-05-08T06:13:50.393Z,16.88
2023-05-08T06:14:48.554Z,16.87
2023-05-08T06:15:48.616Z,16.92
2023-05-08T06:16:48.699Z,16.94
2023-05-08T06:17:48.786Z,16.94
2023-05-08T06:18:48.763Z,16.97
2023-05-08T06:19:48.835Z,16.96
2023-05-08T06:20:48.865Z,16.99
2023-05-08T06:21:48.927Z,17.02
2023-05-08T06:22:48.962Z,17.03
2023-05-08T06:23:48.969Z,17.00
2023-05-08T06:24:49.042Z,17.00
2023-05-08T06:25:49.082Z,17.07
2023-05-08T06:26:49.139Z,17.06
2023-05-08T06:27:49.230Z,17.01
2023-05-08T06:28:49.260Z,17.01
2023-05-08T06:29:49.763Z,16.99
2023-05-08T06:30:49.625Z,17.01
2023-05-08T06:31:49.431Z,17.05
2023-05-08T06:32:49.582Z,17.05
2023-05-08T06:33:49.598Z,17.01
2023-05-08T06:34:49.572Z,17.01
2023-05-08T06:35:49.661Z,17.03
2023-05-08T06:36:49.762Z,17.06
2023-05-08T06:37:49.749Z,17.10
2023-05-08T06:38:49.828Z,17.13
2023-05-08T06:39:57.261Z,17.16
2023-05-08T06:40:50.904Z,17.15
2023-05-08T06:41:49.881Z,17.14
2023-05-08T06:42:49.842Z,17.09
2023-05-08T06:43:49.842Z,17.11
2023-05-08T06:44:49.850Z,17.12
2023-05-08T06:45:49.839Z,17.14
2023-05-08T06:46:50.026Z,17.22
2023-05-08T06:47:49.950Z,17.23
2023-05-08T06:48:49.814Z,17.25
2023-05-08T06:49:49.793Z,17.22
2023-05-08T06:50:49.794Z,17.25
2023-05-08T06:51:49.815Z,17.29
2023-05-08T06:52:49.867Z,17.33
2023-05-08T06:53:49.873Z,17.32
2023-05-08T06:54:50.355Z,17.30
2023-05-08T06:55:49.937Z,17.22
2023-05-08T06:56:49.952Z,17.22
2023-05-08T06:57:49.973Z,17.27
2023-05-08T06:58:57.002Z,17.29
2023-05-08T06:59:51.047Z,17.34
2023-05-08T07:00:49.984Z,17.36
2023-05-08T07:01:50.066Z,17.35
2023-05-08T07:02:50.149Z,17.29
2023-05-08T07:03:49.980Z,17.34
2023-05-08T07:04:50.034Z,17.31
2023-05-08T07:05:49.967Z,17.36
2023-05-08T07:06:49.950Z,17.36
2023-05-08T07:07:50.297Z,17.37
2023-05-08T07:08:49.958Z,17.41
2023-05-08T07:09:49.966Z,17.39
2023-05-08T07:10:49.946Z,17.39
2023-05-08T07:11:49.934Z,17.36
2023-05-08T07:12:50.026Z,17.40
2023-05-08T07:13:49.941Z,17.41
2023-05-08T07:14:49.910Z,17.44
2023-05-08T07:15:49.927Z,17.41
2023-05-08T07:16:49.902Z,17.40
2023-05-08T07:17:49.926Z,17.41
2023-05-08T07:18:49.922Z,17.40
2023-05-08T07:19:49.985Z,17.38
2023-05-08T07:20:49.981Z,17.38
2023-05-08T07:21:49.986Z,17.44
2023-05-08T07:22:49.978Z,17.49
2023-05-08T07:23:49.982Z,17.40
2023-05-08T07:24:50.039Z,17.43
2023-05-08T07:25:50.040Z,17.45
2023-05-08T07:26:50.061Z,17.43
2023-05-08T07:27:50.056Z,17.47
2023-05-08T07:28:50.042Z,17.50
2023-05-08T07:29:50.103Z,17.46
2023-05-08T07:30:50.095Z,17.46
2023-05-08T07:31:50.131Z,17.47
2023-05-08T07:32:50.189Z,17.47
2023-05-08T07:33:50.143Z,17.47
2023-05-08T07:34:50.246Z,17.45
2023-05-08T07:35:50.196Z,17.39
2023-05-08T07:36:50.216Z,17.37
2023-05-08T07:37:50.246Z,17.27
2023-05-08T07:38:50.240Z,17.29
2023-05-08T07:39:50.253Z,17.35
2023-05-08T07:40:50.781Z,17.37
2023-05-08T07:41:50.339Z,17.37
2023-05-08T07:42:50.767Z,17.40
2023-05-08T07:43:50.326Z,17.35
2023-05-08T07:44:54.473Z,17.39
2023-05-08T07:45:50.346Z,17.41
2023-05-08T07:46:50.401Z,17.49
2023-05-08T07:47:51.163Z,17.53
2023-05-08T07:48:50.379Z,17.55
2023-05-08T07:49:50.322Z,17.58
2023-05-08T07:50:50.368Z,17.59
2023-05-08T07:51:50.303Z,17.58
2023-05-08T07:52:50.764Z,17.60
2023-05-08T07:53:50.290Z,17.58
2023-05-08T07:54:50.301Z,17.59
2023-05-08T07:55:50.266Z,17.59
2023-05-08T07:56:50.282Z,17.52
2023-05-08T07:57:50.302Z,17.56
2023-05-08T07:58:50.266Z,17.60
2023-05-08T07:59:50.250Z,17.63
2023-05-08T08:00:50.247Z,17.69
2023-05-08T08:01:50.263Z,17.73
2023-05-08T08:02:50.468Z,17.79
2023-05-08T08:03:50.390Z,17.73
2023-05-08T08:04:50.228Z,17.75
2023-05-08T08:05:50.365Z,17.67
2023-05-08T08:06:50.233Z,17.60
2023-05-08T08:07:50.288Z,17.62
2023-05-08T08:08:50.236Z,17.67
2023-05-08T08:09:50.193Z,17.73
2023-05-08T08:10:50.259Z,17.82
2023-05-08T08:11:50.479Z,17.85
2023-05-08T08:12:50.812Z,17.88
2023-05-08T08:13:50.361Z,17.90
2023-05-08T08:14:50.510Z,17.93
2023-05-08T08:15:50.484Z,17.92
2023-05-08T08:16:50.574Z,17.96
2023-05-08T08:17:50.937Z,18.00
2023-05-08T08:18:50.590Z,18.04
2023-05-08T08:19:50.645Z,18.08
2023-05-08T08:20:50.741Z,18.15
2023-05-08T08:21:50.829Z,18.15
2023-05-08T08:22:50.878Z,18.16
2023-05-08T08:23:50.872Z,18.18
2023-05-08T08:24:52.466Z,18.22
2023-05-08T08:25:51.325Z,18.17
2023-05-08T08:26:50.935Z,18.17
2023-05-08T08:27:50.888Z,18.18
2023-05-08T08:28:51.016Z,18.19
2023-05-08T08:29:52.523Z,18.20
2023-05-08T08:30:51.888Z,18.20
2023-05-08T08:31:50.893Z,18.23
2023-05-08T08:32:50.956Z,18.24
2023-05-08T08:33:50.875Z,18.28
2023-05-08T08:34:50.870Z,18.27
2023-05-08T08:35:50.873Z,18.30
2023-05-08T08:36:50.827Z,18.32
2023-05-08T08:37:51.309Z,18.34
2023-05-08T08:38:50.908Z,18.35
2023-05-08T08:39:50.825Z,18.39
2023-05-08T08:40:50.859Z,18.39
2023-05-08T08:41:50.859Z,18.44
2023-05-08T08:42:51.299Z,18.43
2023-05-08T08:43:50.940Z,18.44
2023-05-08T08:44:50.946Z,18.42
2023-05-08T08:45:51.014Z,18.43
2023-05-08T08:46:51.083Z,18.47
2023-05-08T08:47:51.124Z,18.50
2023-05-08T08:48:51.051Z,18.50
2023-05-08T08:49:51.060Z,18.54
2023-05-08T08:50:51.127Z,18.57
2023-05-08T08:51:51.122Z,18.56
2023-05-08T08:52:51.129Z,18.62
2023-05-08T08:53:51.107Z,18.69
2023-05-08T08:54:51.224Z,18.68
2023-05-08T08:55:51.112Z,18.70
2023-05-08T08:56:51.115Z,18.71
2023-05-08T08:57:51.111Z,18.67
2023-05-08T08:58:51.233Z,18.69
2023-05-08T08:59:51.159Z,18.69
2023-05-08T09:00:51.164Z,18.70
2023-05-08T09:01:51.330Z,18.70
2023-05-08T09:02:51.271Z,18.66
2023-05-08T09:03:51.246Z,18.63
2023-05-08T09:04:51.198Z,18.64
2023-05-08T09:05:51.329Z,18.69
2023-05-08T09:06:51.207Z,18.72
2023-05-08T09:07:51.352Z,18.71
2023-05-08T09:08:51.211Z,18.72
2023-05-08T09:09:51.260Z,18.73
2023-05-08T09:10:51.309Z,18.71
2023-05-08T09:11:51.270Z,18.70
2023-05-08T09:12:51.365Z,18.69
2023-05-08T09:13:51.283Z,18.70
2023-05-08T09:14:51.296Z,18.71
2023-05-08T09:15:51.403Z,18.71
2023-05-08T09:16:51.357Z,18.72
2023-05-08T09:17:51.396Z,18.74
2023-05-08T09:18:51.336Z,18.74
2023-05-08T09:19:51.347Z,18.74
2023-05-08T09:20:51.432Z,18.78
2023-05-08T09:21:51.343Z,18.80
2023-05-08T09:22:51.387Z,18.82
2023-05-08T09:23:51.383Z,18.82
2023-05-08T09:24:51.416Z,18.84
2023-05-08T09:25:51.402Z,18.87
2023-05-08T09:26:51.497Z,18.86
2023-05-08T09:27:51.818Z,18.90
2023-05-08T09:28:51.843Z,18.91
2023-05-08T09:29:51.445Z,18.88
2023-05-08T09:30:51.441Z,18.90
2023-05-08T09:31:51.580Z,18.83
2023-05-08T09:32:51.561Z,18.87
2023-05-08T09:33:51.821Z,18.76
2023-05-08T09:34:51.613Z,18.80
2023-05-08T09:35:51.703Z,18.86
2023-05-08T09:36:51.755Z,18.83
2023-05-08T09:37:51.805Z,18.70
2023-05-08T09:38:52.321Z,18.79
2023-05-08T09:39:51.982Z,18.86
2023-05-08T09:40:52.366Z,18.91
2023-05-08T09:41:52.033Z,18.98
2023-05-08T09:42:52.168Z,19.03
2023-05-08T09:43:52.176Z,19.04
2023-05-08T09:44:52.230Z,19.09
2023-05-08T09:45:52.307Z,19.11
2023-05-08T09:46:52.323Z,19.16
2023-05-08T09:47:52.413Z,19.20
2023-05-08T09:48:52.431Z,19.18
2023-05-08T09:49:52.465Z,19.21
2023-05-08T09:50:52.537Z,19.23
2023-05-08T09:51:52.711Z,19.22
2023-05-08T09:52:52.719Z,19.23
2023-05-08T09:53:52.740Z,19.22
2023-05-08T09:54:52.781Z,19.25
2023-05-08T09:55:52.824Z,19.31
2023-05-08T09:56:52.881Z,19.35
2023-05-08T09:57:52.941Z,19.36
2023-05-08T09:58:53.085Z,19.40
2023-05-08T09:59:53.073Z,19.44
2023-05-08T10:00:53.127Z,19.44
2023-05-08T10:01:53.132Z,19.40
2023-05-08T10:02:53.365Z,19.44
2023-05-08T10:03:53.362Z,19.47
2023-05-08T10:04:53.238Z,19.39
2023-05-08T10:05:53.323Z,19.43
2023-05-08T10:06:56.378Z,19.46
2023-05-08T10:07:53.848Z,19.50
2023-05-08T10:08:53.360Z,19.51
2023-05-08T10:09:53.353Z,19.58
2023-05-08T10:10:53.404Z,19.65
2023-05-08T10:11:53.328Z,19.70
2023-05-08T10:12:53.376Z,19.74
2023-05-08T10:13:53.452Z,19.75
2023-05-08T10:14:53.383Z,19.79
2023-05-08T10:15:53.311Z,19.81
2023-05-08T10:16:53.336Z,19.87
2023-05-08T10:17:53.355Z,19.84
2023-05-08T10:18:53.321Z,19.85
2023-05-08T10:19:53.280Z,19.82
2023-05-08T10:20:53.363Z,19.84
2023-05-08T10:21:53.340Z,19.76
2023-05-08T10:22:53.290Z,19.82
2023-05-08T10:23:53.287Z,19.89
2023-05-08T10:24:53.256Z,19.85
2023-05-08T10:25:55.021Z,19.82
2023-05-08T10:27:05.735Z,19.89
2023-05-08T10:27:54.253Z,19.97
2023-05-08T10:28:53.323Z,20.02
2023-05-08T10:29:53.210Z,20.06
2023-05-08T10:30:53.348Z,20.06
2023-05-08T10:31:53.208Z,20.10
2023-05-08T10:32:53.233Z,20.08
2023-05-08T10:33:53.204Z,20.09
2023-05-08T10:34:53.237Z,20.04
2023-05-08T10:35:53.211Z,20.06
2023-05-08T10:36:54.185Z,19.81
2023-05-08T10:37:53.237Z,19.76
2023-05-08T10:38:53.278Z,19.90
2023-05-08T10:39:53.344Z,20.02
2023-05-08T10:40:53.445Z,20.12
2023-05-08T10:41:53.465Z,20.15
2023-05-08T10:42:53.502Z,20.24
2023-05-08T10:43:53.514Z,20.21
2023-05-08T10:44:53.542Z,20.27
2023-05-08T10:45:53.657Z,20.31
2023-05-08T10:46:53.734Z,20.41
2023-05-08T10:47:53.755Z,20.32
2023-05-08T10:48:53.733Z,20.33
2023-05-08T10:49:53.719Z,20.21
2023-05-08T10:50:53.731Z,20.27
2023-05-08T10:51:53.753Z,20.30
2023-05-08T10:52:53.763Z,20.25
2023-05-08T10:53:53.799Z,20.35
2023-05-08T10:54:53.772Z,20.49
2023-05-08T10:55:53.972Z,20.62
2023-05-08T10:56:53.800Z,20.71
2023-05-08T10:57:53.786Z,20.77
2023-05-08T10:58:53.828Z,20.82
2023-05-08T10:59:53.802Z,20.86
2023-05-08T11:00:53.845Z,20.85
2023-05-08T11:01:53.867Z,20.72
2023-05-08T11:02:53.938Z,20.66
2023-05-08T11:03:53.929Z,20.74
2023-05-08T11:04:53.854Z,20.69
2023-05-08T11:05:53.922Z,20.74
2023-05-08T11:06:53.859Z,20.72
2023-05-08T11:07:53.890Z,20.82
2023-05-08T11:08:54.248Z,20.82
2023-05-08T11:09:54.039Z,20.81
2023-05-08T11:10:54.047Z,20.76
2023-05-08T11:11:54.119Z,20.85
2023-05-08T11:12:54.254Z,20.94
2023-05-08T11:13:54.230Z,21.02
2023-05-08T11:14:54.225Z,21.05
2023-05-08T11:15:54.335Z,21.14
2023-05-08T11:16:54.379Z,21.23
2023-05-08T11:17:54.518Z,21.29
2023-05-08T11:18:54.841Z,21.31
2023-05-08T11:19:54.546Z,21.37
2023-05-08T11:20:54.579Z,21.34
2023-05-08T11:21:54.856Z,21.38
2023-05-08T11:22:54.698Z,21.44
2023-05-08T11:23:54.745Z,21.28
2023-05-08T11:24:54.789Z,21.37
2023-05-08T11:25:54.836Z,21.37
2023-05-08T11:26:54.878Z,21.38
2023-05-08T11:27:54.897Z,21.43
2023-05-08T11:28:54.986Z,21.34
2023-05-08T11:29:54.960Z,21.41
2023-05-08T11:30:54.991Z,21.41
2023-05-08T11:31:55.035Z,21.43
2023-05-08T11:32:55.083Z,21.35
2023-05-08T11:33:55.064Z,21.31
2023-05-08T11:34:55.063Z,21.13
2023-05-08T11:35:55.048Z,21.11
2023-05-08T11:36:55.063Z,21.24
2023-05-08T11:37:55.073Z,21.33
2023-05-08T11:38:56.348Z,21.32
2023-05-08T11:39:55.076Z,21.39
2023-05-08T11:40:55.105Z,21.45
2023-05-08T11:41:55.102Z,21.49
2023-05-08T11:42:55.127Z,21.47
2023-05-08T11:43:55.146Z,21.58
2023-05-08T11:44:55.170Z,21.64
2023-05-08T11:45:55.180Z,21.74
2023-05-08T11:46:55.233Z,21.68
2023-05-08T11:47:55.201Z,21.80
2023-05-08T11:48:55.204Z,21.59
2023-05-08T11:49:55.275Z,21.66
2023-05-08T11:50:55.267Z,21.68
2023-05-08T11:51:55.266Z,21.57
2023-05-08T11:52:55.244Z,21.63
2023-05-08T11:53:55.268Z,21.72
2023-05-08T11:54:55.251Z,21.80
2023-05-08T11:55:55.257Z,21.85
2023-05-08T11:56:55.264Z,21.91
2023-05-08T11:57:55.275Z,21.92
2023-05-08T11:58:55.278Z,21.85
2023-05-08T11:59:55.262Z,21.89
2023-05-08T12:00:55.424Z,21.90
2023-05-08T12:02:55.341Z,21.77
2023-05-08T12:03:55.401Z,21.86
2023-05-08T12:04:55.317Z,21.89
2023-05-08T12:05:55.257Z,21.94
2023-05-08T12:06:55.248Z,21.98
2023-05-08T12:07:55.219Z,22.03
2023-05-08T12:08:55.232Z,22.06
2023-05-08T12:09:55.209Z,22.09
2023-05-08T12:10:55.216Z,22.11
2023-05-08T12:11:55.202Z,22.16
2023-05-08T12:12:55.233Z,22.07
2023-05-08T12:13:55.217Z,22.07
2023-05-08T12:14:55.174Z,22.12
2023-05-08T12:15:55.167Z,22.09
2023-05-08T12:16:55.208Z,22.12
2023-05-08T12:17:55.172Z,22.16
2023-05-08T12:18:55.160Z,22.18
2023-05-08T12:19:55.156Z,22.22
2023-05-08T12:20:55.158Z,22.23
2023-05-08T12:21:55.147Z,22.21
2023-05-08T12:22:55.139Z,22.11
2023-05-08T12:23:55.134Z,22.13
2023-05-08T12:24:55.129Z,22.14
2023-05-08T12:25:55.545Z,22.19
2023-05-08T12:26:55.097Z,22.12
2023-05-08T12:27:55.110Z,21.94
2023-05-08T12:28:55.104Z,21.95
2023-05-08T12:29:55.090Z,21.90
2023-05-08T12:30:55.101Z,21.85
2023-05-08T12:31:55.090Z,21.95
2023-05-08T12:32:55.119Z,21.93
2023-05-08T12:33:55.072Z,21.98
2023-05-08T12:34:55.053Z,22.04
2023-05-08T12:35:55.074Z,22.11
2023-05-08T12:36:55.037Z,22.17
2023-05-08T12:37:55.029Z,22.22
2023-05-08T12:38:55.113Z,22.24
2023-05-08T12:39:55.005Z,22.26
2023-05-08T12:40:55.020Z,22.22
2023-05-08T12:41:54.993Z,22.27
2023-05-08T12:42:54.990Z,22.26
2023-05-08T12:43:54.973Z,22.30
2023-05-08T12:44:54.974Z,22.28
2023-05-08T12:45:54.973Z,22.29
2023-05-08T12:46:55.048Z,22.18
2023-05-08T12:47:55.041Z,22.20
2023-05-08T12:48:54.955Z,22.26
2023-05-08T12:49:54.977Z,22.30
2023-05-08T12:50:54.921Z,22.34
2023-05-08T12:51:54.922Z,22.33
2023-05-08T12:52:54.924Z,22.23
2023-05-08T12:53:54.904Z,22.31